Central Sonoma County Latest

37 Stations

15 Minute Data | America/Los_Angeles
as of 5/9/26 6:34 PM PDT
Station Date Time Temp (°F) RH (%) Dew Pt (°F) Wind Spd (mph) Wind Dir (°) Wind Gust (mph) Latest Rain (In) Daily Rain (In) Daily Max Temp (°F) Daily Min Temp (°F)
Windsor-NW (Ranch 8) 5/9/26 1830 72.6   1.9 62   1 59.0   1.6 2.6   0.5 SE | 140 7.3   0.1 0.00 0.00 80.6   2.8 48.2   3.0
Windsor-East (Ranch 16) 5/9/26 1830 70.6   0.8 56   1 54.0   0.0 6.5   0.9 SSE | 168 10.7   1.4 0.00 0.00 78.4   3.5 45.2   6.8
Mark West-North (Ranch 14) 5/9/26 1830 69.0   2.2 59   2 54.3   1.3 3.4   1.2 SE | 145 7.7   1.2 0.00 0.00 77.6   3.1 47.0   4.8
Windsor-SE (Silk Rd) 5/9/26 1830 69.5   0.4 61   1 55.5   0.7 4.3   0.5 SE | 130 8.8   1.8 0.00 0.00 78.2   2.4 44.5   7.1
Fulton-NW (Ranch 5) 5/9/26 1830 69.0   1.1 61   0 54.8   0.9 6.0   0.8 SE | 134 11.6   1.3 0.00 0.00 77.8   3.5 46.3   5.3
Bisordi (Fulton) 5/9/26 1830 68.4   0.8 67   1 56.9   0.5 3.9   0.8 SSE | 158 9.1   2.0 0.00 0.00 77.2   3.0 46.2   5.7
Windsor-South (Laughlin Rd) 5/9/26 1830 67.2   0.0 64   0 54.7   0.2 - - - 0.00 0.00 79.8   4.3 46.5   4.9
Fulton-SE (Barnes Rd) 5/9/26 1830 67.1   0.1 62   0 53.7   0.2 0.0   0.0 N | 0 0.0   0.0 0.00 0.00 76.6   2.8 47.2   4.9
Fulton-SW (Ranch 21) 5/9/26 1830 66.7   0.9 65   0 54.5   0.8 7.4   0.3 SE | 146 12.5   0.1 0.00 0.00 76.3   3.4 46.1   5.0
NW Santa Rosa (Piner Road) 5/9/26 1830 65.3   0.1 77   1 57.7   0.3 4.5   1.5 SE | 136 10.4   3.1 0.00 0.00 75.5   2.8 45.5   5.8
River Rd South (Denner Ranch) 5/9/26 1830 67.3   1.0 64   1 55.0   1.4 7.2   0.0 ESE | 116 12.5   1.1 - - 77.0   2.9 44.5   6.4
West Santa Rosa (LOV Vineyard) 5/9/26 1830 67.8   0.7 65   1 55.4   1.2 1.4   0.3 ESE | 118 4.6   1.8 0.00 0.00 76.3   2.9 45.7   5.4
Guerneville Rd (Prokopakis) 5/9/26 1830 68.8   0.1 62   2 55.3   1.1 - - - 0.00 0.00 80.7   3.2 46.6   4.9
SunnyView Vineyard (SCWC) 5/9/26 1830 65.4   0.6 67   1 54.1   0.8 3.5   0.1 SE | 132 9.7   0.7 0.00 0.00 75.8   3.2 43.6   7.3
Guerneville Rd West (Balletto) 5/9/26 1830 67.3   0.9 71   1 57.5   1.4 5.3   0.3 SE | 135 9.7   0.0 0.00 0.00 76.4   2.5 45.4   5.9
Sanchietti Ranch 5/9/26 1830 67.0   1.9 72   2 57.8   0.9 6.2   0.4 SSE | 163 12.5   1.8 0.00 0.00 76.3   3.1 46.2   5.8
Occidental Rd (Sebastopol) 5/9/26 1830 64.9   0.2 100   0 64.9   0.2 4.0   0.1 SE | 137 8.3   0.4 0.00 0.00 76.2   2.8 45.0   5.7
Harper's Rest (Windsor-West) 5/9/26 1830 72.2   1.4 55   0 55.1   1.3 3.0   0.3 E | 94 7.5   1.1 0.00 0.00 79.2   2.3 44.2   5.7
Lower Westside Rd (Ranch 12) 5/9/26 1830 71.3   1.2 58   0 55.6   1.2 3.1   0.5 SE | 141 6.9   0.2 0.00 0.00 80.4   3.0 45.4   5.9
Guerneville (Laughlin Rd) 5/9/26 1830 71.7   1.2 55   2 54.5   0.1 3.3   0.6 S | 186 5.8   0.4 0.00 0.00 82.1   2.9 48.2   2.6
Korbel (Winery) 5/9/26 1830 76.6   1.3 49   5 56.2   1.3 0.0   0.8 N | 0 0.0   8.6 0.00 0.00 83.4   2.7 49.9   1.8
Forestville (Shone Farms) 5/9/26 1830 69.7   0.8 62   0 56.1   0.7 4.8   0.8 ESE | 118 8.3   0.1 0.00 0.00 81.4   4.8 46.0   3.9
Forestville-NE (Ranch 30) 5/9/26 1830 68.9   0.5 67   0 57.4   0.6 5.7   0.1 SE | 132 10.2   0.2 0.00 0.00 79.7   3.7 44.7   6.1
Foggy Bend (Ranch 41) 5/9/26 1830 71.8   1.2 64   1 59.0   0.8 1.3   0.1 ESE | 122 5.5   1.7 0.00 0.00 80.2   2.8 46.1   5.8
Last Stop 5/9/26 1830 70.2   0.1 63   1 56.9   0.2 4.8   0.9 ESE | 116 8.0   0.4 0.00 0.00 80.2   3.2 43.8   7.5
Green Valley Vineyard 5/9/26 1830 70.1   0.8 63   3 56.8   0.5 3.9   2.1 NE | 42 7.5   2.4 0.00 0.00 81.2   6.6 45.4   4.8
Park Royal 5/9/26 1830 66.2   0.2 64   2 53.8   1.0 - - - 0.00 0.00 76.4   3.8 45.2   5.4
Merino 5/9/26 1830 65.6   0.2 73   2 56.5   0.6 5.1   0.5 SE | 143 9.7   2.4 0.00 0.00 75.5   3.3 43.6   7.4
Green Valley (Sanchietti) 5/9/26 1830 70.6   1.4 - - - - - - - 80.5   4.2 44.1   7.6
Keefer Ranch (Green Valley) 5/9/26 1830 70.4   0.5 63   1 57.1   0.0 - - - 0.00 0.00 80.0   4.7 43.8   7.6
Graton-West (Dutton Ranch) 5/9/26 1830 72.0   1.5 66   5 60.2   0.6 3.0   0.0 ENE | 73 6.8   1.2 0.00 0.00 79.8   4.2 45.2   6.2
Graton-South (Mill Station Rd) 5/9/26 1830 70.3   1.1 59   2 55.3   0.1 1.4   0.1 SE | 134 4.6   0.5 0.00 0.00 75.5   2.7 44.7   5.6
Occidental (Horseshoe Bend) 5/9/26 1830 72.8   7.1 53   12 54.9   1.1 - - - 0.00 0.00 77.3   5.0 49.3   0.8
Sexton Valley (Jacqueline's Blk) 5/9/26 1830 68.3   1.3 66   3 56.8   0.2 2.2   0.3 S | 173 6.0   2.0 0.00 0.00 74.5   2.9 44.3   6.5
Sebastopol Hills (Burnside Rd) 5/9/26 1830 66.6   0.9 70   2 56.5   0.2 4.3   1.3 SSW | 199 7.7   2.5 0.00 0.00 71.2   1.9 47.3   2.0
Pleasant Hill 5/9/26 1830 66.2   1.5 65   1 54.0   1.1 3.3   0.1 S | 170 5.5   0.2 0.00 0.00 73.6   2.7 44.1   5.5
Seaview/Fort Ross (Hirsch) 5/9/26 1830 69.9   2.5 56   6 53.5   5.3 5.7   1.0 NNW | 345 9.8   1.8 0.00 0.00 76.4   1.9 54.4   10.5
Max     76.6 100 64.9 7.4 - 12.5 0.00 0.00 83.4 54.4
Avg     69.1 64 56.2 3.9 - 7.9 0.00 - - -
Min     64.9 49 53.5 0.0 - 0.0 0.00 0.00 71.2 43.6